Time;durP1;ratioP1;P1;durP2;ratioP2;P2;SDS_P1;SDS_P2;PMS_P1;PMS_P2;Temp;Humidity;BMP_temperature;BMP_pressure;BME280_temperature;BME280_humidity;BME280_pressure;Samples;Min_cycle;Max_cycle;Signal;HPM_P1;HPM_P2
2023/12/06 00:00:17;;;;;;;12.45;6.53;;;;;;;23.76;37.83;101063.31;2099336;28;20232;-74
2023/12/06 00:01:19;;;;;;;14.95;6.85;;;;;;;23.75;37.42;101057.03;2098724;28;20939;-74
2023/12/06 00:02:20;;;;;;;10.95;6.63;;;;;;;23.74;37.06;101063.69;2090714;28;20095;-73
2023/12/06 00:03:22;;;;;;;14.82;7.10;;;;;;;23.73;36.79;101056.59;2090535;28;20140;-72
2023/12/06 00:04:24;;;;;;;11.45;6.85;;;;;;;23.71;36.46;101053.41;2103450;28;20906;-72
2023/12/06 00:05:26;;;;;;;11.85;6.75;;;;;;;23.71;36.32;101061.66;2099302;28;21114;-72
2023/12/06 00:06:27;;;;;;;12.05;7.10;;;;;;;23.71;36.12;101060.88;2115569;27;20885;-72
2023/12/06 00:07:32;;;;;;;12.82;6.97;;;;;;;23.69;35.96;101052.97;2116227;27;20044;-73
2023/12/06 00:08:35;;;;;;;10.82;6.47;;;;;;;23.68;35.70;101059.59;2098446;28;20029;-73
2023/12/06 00:09:37;;;;;;;11.35;6.85;;;;;;;23.65;35.48;101057.56;2091346;28;20042;-72
2023/12/06 00:10:38;;;;;;;11.60;7.38;;;;;;;23.64;35.33;101063.38;2082898;28;20844;-73
2023/12/06 00:11:40;;;;;;;12.73;7.32;;;;;;;23.62;35.10;101052.78;2082820;28;20037;-73
2023/12/06 00:12:45;;;;;;;10.93;6.72;;;;;;;23.60;34.84;101053.09;2101711;28;20033;-73
2023/12/06 00:13:50;;;;;;;11.77;7.20;;;;;;;23.57;34.59;101058.50;2105728;28;20016;-74
2023/12/06 00:14:53;;;;;;;11.65;6.80;;;;;;;23.55;34.33;101060.84;2115467;28;20028;-75
2023/12/06 00:15:57;;;;;;;11.50;7.25;;;;;;;23.52;34.19;101065.09;2115576;28;20023;-76
2023/12/06 00:16:59;;;;;;;14.63;8.20;;;;;;;23.49;34.11;101059.50;2107375;28;20024;-75
2023/12/06 00:18:04;;;;;;;10.90;7.43;;;;;;;23.46;33.87;101061.00;2107274;27;20110;-75
2023/12/06 00:19:08;;;;;;;10.95;7.10;;;;;;;23.45;33.69;101061.34;2113239;28;20028;-77
2023/12/06 00:20:13;;;;;;;14.45;7.55;;;;;;;23.42;33.58;101062.84;2115854;27;20035;-78
2023/12/06 00:21:18;;;;;;;11.80;7.50;;;;;;;23.39;33.41;101065.50;2115630;27;20161;-77
2023/12/06 00:22:22;;;;;;;11.60;7.25;;;;;;;23.36;33.24;101056.06;2098992;28;20060;-78
2023/12/06 00:23:23;;;;;;;12.02;7.20;;;;;;;23.34;33.18;101074.81;2099031;28;20039;-80
2023/12/06 00:24:26;;;;;;;14.80;7.82;;;;;;;23.32;33.02;101060.63;2105224;28;20045;-76
2023/12/06 00:25:28;;;;;;;15.05;7.20;;;;;;;23.29;32.83;101066.81;2107363;28;20875;-80
2023/12/06 00:26:32;;;;;;;12.60;7.47;;;;;;;23.27;32.74;101058.16;2099232;28;20028;-78
2023/12/06 00:27:33;;;;;;;13.43;8.10;;;;;;;23.23;32.50;101066.28;2090815;28;20030;-78
2023/12/06 00:28:38;;;;;;;14.38;7.55;;;;;;;23.22;32.48;101072.13;2100178;28;20098;-78
2023/12/06 00:29:40;;;;;;;13.60;7.57;;;;;;;23.18;32.32;101074.00;2114992;28;20028;-79
2023/12/06 00:30:42;;;;;;;12.50;7.65;;;;;;;23.15;32.27;101077.44;2099381;28;20044;-78
2023/12/06 00:31:43;;;;;;;12.68;7.72;;;;;;;23.11;32.06;101067.16;2090777;28;20902;-79
2023/12/06 00:32:45;;;;;;;12.50;7.75;;;;;;;23.09;31.94;101074.94;2091277;28;20910;-77
2023/12/06 00:33:51;;;;;;;15.43;8.30;;;;;;;23.05;31.71;101070.50;2115739;28;20035;-78
2023/12/06 00:34:53;;;;;;;11.13;6.90;;;;;;;23.02;31.75;101063.78;2099855;28;20037;-79
2023/12/06 00:35:55;;;;;;;12.68;7.20;;;;;;;23.00;31.64;101065.28;2099376;28;20033;-79
2023/12/06 00:36:57;;;;;;;15.40;7.90;;;;;;;22.97;31.57;101068.72;2107423;28;20020;-76
2023/12/06 00:38:02;;;;;;;12.18;7.72;;;;;;;22.93;31.60;101065.06;2115693;28;20027;-77
2023/12/06 00:39:04;;;;;;;10.43;7.65;;;;;;;22.90;31.50;101067.34;2107379;28;20025;-75
2023/12/06 00:40:09;;;;;;;14.38;8.13;;;;;;;22.86;31.35;101066.47;2090654;28;21472;-76
2023/12/06 00:41:11;;;;;;;12.10;7.57;;;;;;;22.84;31.27;101066.00;2099983;28;20172;-75
2023/12/06 00:42:13;;;;;;;13.77;8.05;;;;;;;22.81;31.29;101068.66;2098865;28;20033;-75
2023/12/06 00:43:14;;;;;;;12.27;7.38;;;;;;;22.77;31.23;101071.28;2099381;28;20033;-77
2023/12/06 00:44:19;;;;;;;11.52;7.25;;;;;;;22.76;31.14;101063.41;2107409;28;20041;-76
2023/12/06 00:45:21;;;;;;;11.07;6.90;;;;;;;22.72;31.02;101071.53;2107326;28;20040;-76
2023/12/06 00:46:24;;;;;;;13.55;7.80;;;;;;;22.70;30.85;101071.09;2098755;28;20147;-75
2023/12/06 00:47:27;;;;;;;9.90;6.97;;;;;;;22.66;30.85;101073.72;2107887;28;20043;-75
2023/12/06 00:48:31;;;;;;;11.55;7.13;;;;;;;22.62;30.96;101066.53;2116413;27;20143;-76
2023/12/06 00:49:33;;;;;;;12.45;8.07;;;;;;;22.61;30.69;101075.91;2107355;28;20044;-76
2023/12/06 00:50:37;;;;;;;12.32;7.47;;;;;;;22.59;30.69;101072.72;2107407;28;21436;-76
2023/12/06 00:51:39;;;;;;;11.65;7.65;;;;;;;22.56;30.80;101073.41;2099178;28;20144;-75
2023/12/06 00:52:44;;;;;;;12.65;7.85;;;;;;;22.53;30.62;101074.09;2091141;28;20127;-75
2023/12/06 00:53:46;;;;;;;12.80;6.93;;;;;;;22.50;30.65;101075.59;2099623;28;20024;-75
2023/12/06 00:54:51;;;;;;;13.43;7.28;;;;;;;22.47;30.68;101070.00;2115757;27;20026;-76
2023/12/06 00:55:54;;;;;;;13.85;8.10;;;;;;;22.44;30.60;101072.28;2116035;27;20078;-77
2023/12/06 00:56:58;;;;;;;10.50;7.10;;;;;;;22.42;30.42;101065.59;2107394;28;20102;-76
2023/12/06 00:58:01;;;;;;;12.38;7.65;;;;;;;22.40;30.45;101076.88;2107960;28;20763;-76
2023/12/06 00:59:05;;;;;;;12.45;7.43;;;;;;;22.36;30.43;101070.50;2115926;27;20117;-76
2023/12/06 01:00:08;;;;;;;12.13;7.53;;;;;;;22.35;30.31;101070.84;2107594;28;20117;-76
2023/12/06 01:01:12;;;;;;;12.27;7.10;;;;;;;22.33;30.28;101067.66;2107752;28;20132;-77
2023/12/06 01:02:14;;;;;;;13.55;8.30;;;;;;;22.28;30.37;101068.69;2099683;28;20138;-76
2023/12/06 01:03:15;;;;;;;12.65;7.80;;;;;;;22.28;30.51;101070.63;2091071;28;20891;-76
2023/12/06 01:04:17;;;;;;;11.20;7.40;;;;;;;22.27;30.41;101072.56;2099939;28;20083;-76
2023/12/06 01:05:22;;;;;;;11.77;7.53;;;;;;;22.24;30.27;101067.78;2108199;28;20028;-76
2023/12/06 01:06:26;;;;;;;10.68;6.97;;;;;;;22.21;30.57;101074.75;2108161;28;20096;-76
2023/12/06 01:07:28;;;;;;;12.75;7.40;;;;;;;22.19;30.58;101066.09;2099242;28;20906;-76
2023/12/06 01:08:30;;;;;;;12.15;7.60;;;;;;;22.16;30.48;101072.25;2099003;28;20048;-77
2023/12/06 01:09:32;;;;;;;11.65;7.22;;;;;;;22.14;30.35;101063.53;2099352;28;20037;-76
2023/12/06 01:10:34;;;;;;;12.65;7.85;;;;;;;22.12;30.50;101070.50;2107273;28;20945;-75
2023/12/06 01:11:36;;;;;;;13.60;7.13;;;;;;;22.11;30.36;101066.19;2082530;28;20045;-75
2023/12/06 01:12:38;;;;;;;12.50;7.72;;;;;;;22.10;30.29;101067.31;2090921;28;20052;-77
2023/12/06 01:13:42;;;;;;;12.35;7.22;;;;;;;22.09;30.14;101065.72;2107149;28;20025;-78
2023/12/06 01:14:44;;;;;;;11.73;7.90;;;;;;;22.07;30.44;101068.81;2098841;28;20033;-77
2023/12/06 01:15:45;;;;;;;10.25;6.82;;;;;;;22.04;30.31;101065.97;2098837;28;20027;-76
2023/12/06 01:16:48;;;;;;;13.68;8.18;;;;;;;22.04;30.40;101055.81;2107268;28;20135;-77
2023/12/06 01:17:50;;;;;;;13.35;7.93;;;;;;;22.04;30.49;101057.75;2107270;28;20153;-78
2023/12/06 01:18:52;;;;;;;12.85;7.43;;;;;;;22.00;30.23;101060.34;2115514;28;20992;-77
2023/12/06 01:19:54;;;;;;;13.38;8.00;;;;;;;21.99;30.32;101065.03;2115751;28;20143;-77
2023/12/06 01:20:56;;;;;;;12.45;8.18;;;;;;;21.98;30.47;101068.94;2107532;28;20040;-77
2023/12/06 01:21:58;;;;;;;11.45;7.38;;;;;;;21.96;30.36;101068.47;2098843;28;20068;-77
2023/12/06 01:23:00;;;;;;;11.52;7.45;;;;;;;21.96;30.48;101062.19;2099108;28;20104;-77
2023/12/06 01:24:02;;;;;;;11.93;7.63;;;;;;;21.95;30.44;101069.59;2106938;28;20035;-77
2023/12/06 01:25:06;;;;;;;12.45;7.70;;;;;;;21.93;30.43;101068.34;2106938;28;20086;-77
2023/12/06 01:26:10;;;;;;;11.70;7.60;;;;;;;21.92;30.42;101073.03;2100498;28;20032;-78
2023/12/06 01:27:12;;;;;;;12.32;7.43;;;;;;;21.90;30.38;101072.56;2115697;28;20074;-77
2023/12/06 01:28:14;;;;;;;14.32;8.18;;;;;;;21.89;30.31;101065.50;2106957;28;20036;-78
2023/12/06 01:29:15;;;;;;;12.60;7.68;;;;;;;21.88;30.30;101068.56;2107632;28;20032;-78
2023/12/06 01:30:17;;;;;;;10.57;7.15;;;;;;;21.86;30.44;101068.94;2115632;28;20048;-78
2023/12/06 01:31:21;;;;;;;11.45;7.55;;;;;;;21.86;30.47;101074.41;2090656;28;20041;-75
2023/12/06 01:32:23;;;;;;;12.43;7.75;;;;;;;21.85;30.56;101078.28;2099950;27;20067;-76
2023/12/06 01:33:28;;;;;;;14.07;8.00;;;;;;;21.85;30.46;101077.50;2115438;27;20059;-78
2023/12/06 01:34:29;;;;;;;11.95;7.88;;;;;;;21.81;30.51;101071.88;2090667;28;20048;-76
2023/12/06 01:35:31;;;;;;;12.00;7.35;;;;;;;21.82;30.65;101073.50;2098624;28;20880;-76
2023/12/06 01:36:32;;;;;;;13.93;7.82;;;;;;;21.80;30.45;101074.97;2106819;28;20102;-76
2023/12/06 01:37:34;;;;;;;12.27;7.65;;;;;;;21.80;30.42;101083.97;2107096;28;20044;-79
2023/12/06 01:38:36;;;;;;;13.80;7.82;;;;;;;21.80;30.45;101074.97;2115457;28;20024;-79
2023/12/06 01:39:41;;;;;;;13.82;8.02;;;;;;;21.77;30.46;101076.44;2116494;27;20833;-80
2023/12/06 01:40:43;;;;;;;13.00;7.72;;;;;;;21.75;30.39;101078.72;2098631;28;20094;-79
2023/12/06 01:41:48;;;;;;;12.07;8.27;;;;;;;21.75;30.43;101076.81;2083106;28;20156;-80
2023/12/06 01:42:51;;;;;;;11.93;7.10;;;;;;;21.72;30.53;101068.47;2099705;28;20033;-80
2023/12/06 01:43:53;;;;;;;12.20;7.47;;;;;;;21.74;30.48;101077.13;2115775;28;20032;-80
2023/12/06 01:44:58;;;;;;;11.75;8.00;;;;;;;21.69;30.39;101071.88;2106810;28;20767;-81
2023/12/06 01:46:00;;;;;;;11.23;7.25;;;;;;;21.70;30.33;101079.75;2104445;28;20758;-80
2023/12/06 01:47:08;;;;;;;13.45;8.77;;;;;;;21.70;30.29;101076.22;2098723;28;20088;-81
2023/12/06 01:48:10;;;;;;;14.07;7.78;;;;;;;21.68;30.25;101078.50;2098740;28;20047;-80
2023/12/06 01:49:12;;;;;;;12.05;7.88;;;;;;;21.67;30.22;101076.91;2090436;28;20903;-78
2023/12/06 01:50:15;;;;;;;12.43;7.82;;;;;;;21.67;30.08;101072.22;2107070;28;20045;-83
2023/12/06 01:51:20;;;;;;;14.73;8.30;;;;;;;21.66;30.12;101075.31;2082596;28;20123;-77
2023/12/06 01:52:22;;;;;;;16.17;8.27;;;;;;;21.63;30.05;101079.53;2091435;28;20041;-77
2023/12/06 01:53:27;;;;;;;13.10;8.30;;;;;;;21.62;30.12;101080.66;2115052;27;20028;-80
2023/12/06 01:54:30;;;;;;;12.52;8.32;;;;;;;21.62;30.03;101079.84;2107028;28;20029;-77
2023/12/06 01:55:32;;;;;;;13.35;8.60;;;;;;;21.61;29.97;101081.00;2098843;28;20098;-75
2023/12/06 01:56:36;;;;;;;13.95;7.97;;;;;;;21.60;30.03;101079.41;2090091;28;20801;-75
2023/12/06 01:57:41;;;;;;;12.55;7.93;;;;;;;21.58;29.80;101079.75;2099490;28;20099;-74
2023/12/06 01:58:46;;;;;;;12.35;7.85;;;;;;;21.57;29.84;101072.69;2089952;28;20037;-78
2023/12/06 01:59:48;;;;;;;13.98;7.63;;;;;;;21.56;30.09;101075.75;2075008;28;20060;-76
2023/12/06 02:00:51;;;;;;;12.90;8.00;;;;;;;21.54;29.75;101078.84;2090470;28;20757;-76
2023/12/06 02:01:53;;;;;;;11.73;7.88;;;;;;;21.53;29.79;101079.97;2082140;28;20834;-76
2023/12/06 02:03:02;;;;;;;16.73;8.30;;;;;;;21.52;29.92;101079.16;2090963;28;20865;-74
2023/12/06 02:04:05;;;;;;;12.30;7.72;;;;;;;21.49;29.96;101068.91;2098968;28;20041;-74
2023/12/06 02:05:11;;;;;;;13.10;7.97;;;;;;;21.49;29.87;101077.09;2090009;28;20033;-74
2023/12/06 02:06:15;;;;;;;11.35;7.35;;;;;;;21.48;29.86;101078.25;2083661;28;20026;-72
2023/12/06 02:07:16;;;;;;;13.57;8.10;;;;;;;21.47;29.95;101067.66;2090520;28;20196;-73
2023/12/06 02:08:18;;;;;;;13.32;8.25;;;;;;;21.46;29.86;101075.03;2098145;28;20032;-74
2023/12/06 02:09:21;;;;;;;13.70;8.38;;;;;;;21.44;29.71;101066.41;2098282;28;20066;-73
2023/12/06 02:10:22;;;;;;;12.77;7.60;;;;;;;21.44;29.76;101068.34;2098855;28;20036;-73
2023/12/06 02:11:31;;;;;;;12.68;7.68;;;;;;;21.41;29.65;101067.06;2098168;28;20033;-72
2023/12/06 02:12:34;;;;;;;12.27;7.57;;;;;;;21.41;29.80;101061.59;2106720;28;20751;-74
2023/12/06 02:13:39;;;;;;;13.02;8.73;;;;;;;21.39;29.88;101057.59;2106286;28;20037;-73
2023/12/06 02:14:43;;;;;;;12.32;8.25;;;;;;;21.39;29.81;101069.34;2099047;28;20029;-75
2023/12/06 02:15:47;;;;;;;12.45;8.05;;;;;;;21.37;29.77;101062.59;2090213;28;20083;-75
2023/12/06 02:16:48;;;;;;;15.20;8.65;;;;;;;21.36;29.71;101067.28;2090715;28;20033;-74
2023/12/06 02:17:51;;;;;;;13.60;8.40;;;;;;;21.36;29.77;101061.81;2089518;28;20139;-74
2023/12/06 02:18:52;;;;;;;15.50;8.75;;;;;;;21.34;29.69;101069.53;2082232;28;20155;-74
2023/12/06 02:19:55;;;;;;;13.00;8.38;;;;;;;21.33;29.69;101067.94;2098552;28;20040;-76
2023/12/06 02:20:58;;;;;;;13.77;8.23;;;;;;;21.33;29.96;101076.13;2098573;28;20014;-75
2023/12/06 02:22:03;;;;;;;11.82;7.78;;;;;;;21.31;29.80;101070.19;2098641;28;20934;-76
2023/12/06 02:23:07;;;;;;;13.30;8.15;;;;;;;21.31;29.93;101072.94;2106413;28;20071;-75
2023/12/06 02:24:12;;;;;;;12.57;8.13;;;;;;;21.31;29.86;101075.66;2114692;28;20059;-76
2023/12/06 02:25:18;;;;;;;13.55;8.00;;;;;;;21.30;29.87;101074.06;2106407;28;20040;-75
2023/12/06 02:26:20;;;;;;;15.65;8.38;;;;;;;21.28;29.94;101077.16;2089993;28;20030;-75
2023/12/06 02:27:22;;;;;;;12.68;7.85;;;;;;;21.27;29.92;101064.59;2089689;28;20026;-75
2023/12/06 02:28:24;;;;;;;11.75;7.85;;;;;;;21.27;29.97;101066.53;2106353;28;20880;-73
2023/12/06 02:29:28;;;;;;;12.60;8.30;;;;;;;21.27;29.85;101066.53;2106410;28;20033;-77
2023/12/06 02:30:31;;;;;;;14.10;8.50;;;;;;;21.25;29.82;101060.63;2098045;28;20041;-77
2023/12/06 02:31:33;;;;;;;13.10;8.05;;;;;;;21.26;29.80;101062.22;2098211;28;20040;-73
2023/12/06 02:32:35;;;;;;;11.80;7.72;;;;;;;21.24;29.77;101062.53;2106065;28;20028;-73
2023/12/06 02:33:38;;;;;;;13.65;8.20;;;;;;;21.24;29.76;101059.03;2114563;28;20054;-75
2023/12/06 02:34:42;;;;;;;12.45;7.55;;;;;;;21.23;29.85;101058.22;2114469;28;20917;-74
2023/12/06 02:35:49;;;;;;;12.45;7.80;;;;;;;21.22;29.98;101056.63;2106388;28;20063;-74
2023/12/06 02:37:00;;;;;;;13.65;8.48;;;;;;;21.20;29.86;101050.69;2107544;28;20149;-74
2023/12/06 02:38:02;;;;;;;11.88;7.50;;;;;;;21.21;29.84;101059.69;2096611;28;20025;-75
2023/12/06 02:39:08;;;;;;;13.77;8.30;;;;;;;21.20;29.86;101052.63;2090852;28;20038;-72
2023/12/06 02:40:14;;;;;;;12.20;7.60;;;;;;;21.20;30.00;101050.69;2098009;28;20879;-72
2023/12/06 02:41:17;;;;;;;13.02;7.90;;;;;;;21.20;29.91;101055.38;2090340;28;21069;-72
2023/12/06 02:42:19;;;;;;;12.65;8.40;;;;;;;21.19;29.97;101057.31;2098540;28;20036;-72
2023/12/06 02:43:19;;;;;;;13.30;8.25;;;;;;;21.17;29.79;101047.84;2097980;28;20041;-72
2023/12/06 02:44:21;;;;;;;12.98;7.82;;;;;;;21.16;29.92;101052.53;2089751;28;20521;-72
2023/12/06 02:45:23;;;;;;;15.75;8.05;;;;;;;21.15;29.76;101050.91;2089581;28;20044;-72
2023/12/06 02:46:24;;;;;;;12.65;8.07;;;;;;;21.15;29.93;101050.09;2090063;28;20103;-73
2023/12/06 02:47:28;;;;;;;12.13;8.07;;;;;;;21.15;29.67;101055.56;2098163;28;20192;-74
2023/12/06 02:48:33;;;;;;;14.13;7.88;;;;;;;21.14;29.84;101051.25;2090578;28;20152;-74
2023/12/06 02:49:35;;;;;;;14.35;8.20;;;;;;;21.12;29.83;101042.56;2082695;28;20026;-74
2023/12/06 02:50:36;;;;;;;13.70;8.20;;;;;;;21.12;29.86;101048.84;2090287;28;20828;-73
2023/12/06 02:51:38;;;;;;;15.57;8.30;;;;;;;21.11;29.47;101054.66;2098164;28;20037;-73
2023/12/06 02:52:40;;;;;;;13.35;8.55;;;;;;;21.11;29.53;101044.53;2098521;28;20742;-73
2023/12/06 02:53:41;;;;;;;13.07;8.43;;;;;;;21.10;29.53;101042.94;2106999;28;20036;-73
2023/12/06 02:54:43;;;;;;;12.48;8.35;;;;;;;21.10;29.73;101050.34;2106667;28;20262;-74
2023/12/06 02:55:48;;;;;;;13.50;8.00;;;;;;;21.08;29.68;101037.00;2106616;28;21041;-73
2023/12/06 02:56:50;;;;;;;12.23;8.15;;;;;;;21.09;29.72;101040.53;2098579;28;20118;-72
2023/12/06 02:57:52;;;;;;;13.55;8.05;;;;;;;21.09;29.68;101046.00;2081977;28;20033;-73
2023/12/06 02:58:53;;;;;;;13.30;7.93;;;;;;;21.08;29.72;101039.72;2082816;28;20028;-75
2023/12/06 02:59:57;;;;;;;10.80;7.82;;;;;;;21.08;29.73;101036.19;2090218;28;20025;-72
2023/12/06 03:00:59;;;;;;;13.93;8.38;;;;;;;21.08;29.74;101038.94;2090872;28;20139;-72
2023/12/06 03:02:03;;;;;;;12.98;7.78;;;;;;;21.06;29.84;101036.56;2097800;28;20041;-72
2023/12/06 03:03:05;;;;;;;10.40;7.00;;;;;;;21.05;29.71;101038.47;2098746;28;20033;-72
2023/12/06 03:04:07;;;;;;;12.32;8.13;;;;;;;21.05;29.71;101033.00;2098074;28;20037;-72
2023/12/06 03:05:09;;;;;;;13.05;8.35;;;;;;;21.05;29.52;101029.47;2098582;28;20852;-72
2023/12/06 03:06:10;;;;;;;11.82;8.05;;;;;;;21.04;29.63;101033.34;2098062;28;20146;-72
2023/12/06 03:07:12;;;;;;;12.45;8.00;;;;;;;21.04;29.59;101028.66;2081867;28;20038;-72
2023/12/06 03:08:14;;;;;;;12.48;8.05;;;;;;;21.03;29.37;101029.03;2073533;28;20046;-72
2023/12/06 03:09:15;;;;;;;15.68;8.88;;;;;;;21.01;29.67;101021.16;2090476;28;20144;-73
2023/12/06 03:10:16;;;;;;;11.50;7.55;;;;;;;21.01;29.37;101023.88;2097950;28;20101;-72
2023/12/06 03:11:19;;;;;;;15.35;8.50;;;;;;;21.01;29.27;101026.59;2098081;28;20151;-73
2023/12/06 03:12:20;;;;;;;13.98;8.57;;;;;;;21.00;29.11;101025.03;2097923;28;20997;-72
2023/12/06 03:13:22;;;;;;;14.75;8.57;;;;;;;20.99;29.09;101023.41;2089885;28;20041;-75
2023/12/06 03:14:24;;;;;;;15.00;8.90;;;;;;;20.98;29.08;101030.03;2089763;28;20095;-74
2023/12/06 03:15:26;;;;;;;13.93;8.52;;;;;;;20.96;29.08;101029.53;2081921;28;20140;-73
2023/12/06 03:16:27;;;;;;;14.70;8.80;;;;;;;20.95;29.02;101030.69;2098086;28;20147;-72
2023/12/06 03:17:29;;;;;;;13.13;8.18;;;;;;;20.95;28.97;101027.16;2081603;28;20137;-73
2023/12/06 03:18:31;;;;;;;13.65;8.05;;;;;;;20.93;29.07;101027.50;2081867;28;20029;-73
2023/12/06 03:19:32;;;;;;;13.63;7.95;;;;;;;20.92;29.04;101031.38;2089973;28;20076;-74
2023/12/06 03:20:34;;;;;;;13.35;8.13;;;;;;;20.92;29.15;101034.09;2098048;28;20819;-72
2023/12/06 03:21:35;;;;;;;13.57;8.10;;;;;;;20.91;28.95;101026.25;2098187;28;20037;-72
2023/12/06 03:22:39;;;;;;;14.93;8.73;;;;;;;20.88;28.85;101027.72;2097739;28;20048;-71
2023/12/06 03:23:44;;;;;;;11.38;7.40;;;;;;;20.87;28.71;101039.78;2106705;28;20024;-72
2023/12/06 03:24:49;;;;;;;12.82;8.38;;;;;;;20.85;28.80;101031.13;2106837;28;20032;-75
2023/12/06 03:25:52;;;;;;;14.63;8.65;;;;;;;20.82;28.58;101024.38;2106681;28;20094;-74
2023/12/06 03:26:53;;;;;;;14.02;8.80;;;;;;;20.82;28.60;101029.06;2097886;28;20077;-74
2023/12/06 03:27:56;;;;;;;13.30;8.50;;;;;;;20.81;28.80;101027.47;2090255;28;20022;-76
2023/12/06 03:28:57;;;;;;;15.10;8.52;;;;;;;20.80;28.69;101025.84;2098075;28;20029;-76
2023/12/06 03:29:59;;;;;;;14.48;8.23;;;;;;;20.78;28.63;101025.41;2090289;28;20021;-76
2023/12/06 03:31:03;;;;;;;12.73;8.13;;;;;;;20.77;28.60;101029.25;2089878;28;20961;-76
2023/12/06 03:32:06;;;;;;;15.15;8.77;;;;;;;20.75;28.62;101026.09;2077859;28;20026;-76
2023/12/06 03:33:08;;;;;;;14.18;9.15;;;;;;;20.74;28.53;101024.47;2082359;28;20034;-78
2023/12/06 03:34:09;;;;;;;15.40;8.80;;;;;;;20.73;28.56;101020.16;2090068;28;20025;-78
2023/12/06 03:35:11;;;;;;;13.50;8.50;;;;;;;20.71;28.33;101025.13;2089904;28;20032;-77
2023/12/06 03:36:15;;;;;;;13.13;8.60;;;;;;;20.71;28.80;101019.66;2090602;28;20069;-78
2023/12/06 03:37:16;;;;;;;13.20;8.82;;;;;;;20.70;28.73;101029.81;2081951;28;20038;-75
2023/12/06 03:38:18;;;;;;;13.50;8.68;;;;;;;20.69;28.64;101038.34;2091084;28;20897;-73
2023/12/06 03:39:20;;;;;;;14.00;8.77;;;;;;;20.68;28.75;101031.28;2091110;28;20086;-73
2023/12/06 03:40:24;;;;;;;13.88;8.82;;;;;;;20.67;28.60;101035.16;2100096;28;20809;-74
2023/12/06 03:41:27;;;;;;;14.52;8.82;;;;;;;20.66;28.59;101041.75;2107580;28;20135;-73
2023/12/06 03:42:31;;;;;;;15.45;8.90;;;;;;;20.65;28.66;101045.59;2100404;28;20045;-76
2023/12/06 03:43:33;;;;;;;15.45;9.15;;;;;;;20.64;28.45;101044.00;2099219;28;20087;-76
2023/12/06 03:44:37;;;;;;;14.82;8.75;;;;;;;20.63;28.37;101045.16;2099748;28;20079;-79
2023/12/06 03:45:39;;;;;;;16.48;9.57;;;;;;;20.61;28.50;101048.19;2099926;28;20123;-75
2023/12/06 03:46:41;;;;;;;13.57;8.15;;;;;;;20.60;28.36;101043.88;2091264;28;20144;-76
2023/12/06 03:47:46;;;;;;;14.27;9.00;;;;;;;20.59;28.53;101050.50;2100697;28;20871;-76
2023/12/06 03:48:51;;;;;;;16.15;8.98;;;;;;;20.58;28.56;101052.41;2108005;28;20878;-77
2023/12/06 03:49:55;;;;;;;15.57;9.45;;;;;;;20.56;28.47;101049.22;2092092;28;20091;-77
2023/12/06 03:50:57;;;;;;;14.80;8.38;;;;;;;20.55;28.41;101055.81;2100256;28;20990;-77
2023/12/06 03:51:59;;;;;;;13.13;8.63;;;;;;;20.54;28.42;101054.22;2091038;28;20100;-77
2023/12/06 03:53:00;;;;;;;14.57;8.70;;;;;;;20.53;28.34;101063.53;2075036;28;20104;-78
2023/12/06 03:54:04;;;;;;;14.98;8.40;;;;;;;20.52;28.40;101064.69;2083298;28;20861;-80
2023/12/06 03:55:07;;;;;;;12.55;8.43;;;;;;;20.50;28.32;101058.72;2108174;28;20102;-79
2023/12/06 03:56:09;;;;;;;14.20;8.77;;;;;;;20.48;28.42;101055.50;2107795;28;20017;-79
2023/12/06 03:57:13;;;;;;;15.63;9.90;;;;;;;20.49;28.39;101050.84;2100391;28;20930;-80
2023/12/06 03:58:15;;;;;;;14.98;8.95;;;;;;;20.47;28.45;101048.47;2091261;28;20191;-75
2023/12/06 03:59:17;;;;;;;12.90;8.43;;;;;;;20.46;28.28;101057.78;2090965;28;20132;-75
2023/12/06 04:00:18;;;;;;;14.82;9.27;;;;;;;20.45;28.24;101056.19;2091521;28;20956;-76
2023/12/06 04:01:23;;;;;;;15.02;9.38;;;;;;;20.43;28.21;101055.72;2100102;28;20025;-76
2023/12/06 04:02:25;;;;;;;15.30;9.25;;;;;;;20.42;28.21;101056.03;2107613;28;20027;-77
2023/12/06 04:03:30;;;;;;;12.43;8.30;;;;;;;20.41;28.33;101055.25;2099981;28;20041;-76
2023/12/06 04:04:32;;;;;;;14.98;9.10;;;;;;;20.41;28.22;101051.72;2099241;28;20155;-74
2023/12/06 04:05:36;;;;;;;15.63;9.48;;;;;;;20.39;28.21;101057.50;2082941;28;20058;-82
2023/12/06 04:06:38;;;;;;;14.90;9.32;;;;;;;20.38;28.14;101070.38;2083138;28;20077;-75
2023/12/06 04:07:40;;;;;;;16.42;8.88;;;;;;;20.36;28.10;101064.44;2107734;28;20056;-71
2023/12/06 04:08:46;;;;;;;12.07;7.35;;;;;;;20.35;28.18;101064.78;2107338;28;20036;-72
2023/12/06 04:09:47;;;;;;;14.73;8.85;;;;;;;20.34;28.08;101063.19;2090963;28;20105;-73
2023/12/06 04:10:50;;;;;;;13.88;8.32;;;;;;;20.33;28.10;101070.59;2091337;28;20154;-77
2023/12/06 04:11:55;;;;;;;16.33;9.43;;;;;;;20.34;27.94;101065.91;2100281;28;20132;-75
2023/12/06 04:12:56;;;;;;;14.65;8.18;;;;;;;20.30;27.89;101059.50;2090848;28;20203;-75
2023/12/06 04:13:58;;;;;;;12.80;7.57;;;;;;;20.29;27.92;101064.16;2091295;28;20029;-74
2023/12/06 04:15:00;;;;;;;13.70;8.45;;;;;;;20.28;27.73;101073.50;2090914;28;20152;-74
2023/12/06 04:16:04;;;;;;;13.10;8.57;;;;;;;20.26;27.86;101070.28;2090928;28;20029;-71
2023/12/06 04:17:07;;;;;;;13.20;7.85;;;;;;;20.24;27.81;101074.47;2099471;28;20041;-73
2023/12/06 04:18:09;;;;;;;12.93;8.63;;;;;;;20.23;27.81;101075.63;2099441;28;20033;-74
2023/12/06 04:19:11;;;;;;;13.27;7.95;;;;;;;20.20;27.91;101081.72;2099129;28;20823;-74
2023/12/06 04:20:13;;;;;;;12.13;7.40;;;;;;;20.18;27.80;101084.00;2099518;28;20143;-75
2023/12/06 04:21:16;;;;;;;11.63;7.78;;;;;;;20.17;27.81;101082.41;2082658;28;20037;-74
2023/12/06 04:22:18;;;;;;;15.27;9.02;;;;;;;20.14;27.90;101079.22;2091272;28;20039;-71
2023/12/06 04:23:20;;;;;;;13.50;7.55;;;;;;;20.13;27.82;101077.59;2107049;28;20044;-73
2023/12/06 04:24:21;;;;;;;12.23;7.63;;;;;;;20.11;27.69;101079.88;2091156;28;20030;-72
2023/12/06 04:25:23;;;;;;;16.85;9.10;;;;;;;20.09;27.72;101079.41;2090865;28;20269;-72
2023/12/06 04:26:25;;;;;;;12.70;8.23;;;;;;;20.07;27.77;101089.84;2082743;28;20861;-74
2023/12/06 04:27:26;;;;;;;13.30;8.30;;;;;;;20.05;27.86;101092.09;2081937;28;21217;-75
2023/12/06 04:28:28;;;;;;;14.60;8.43;;;;;;;20.03;27.63;101088.09;2090747;28;20876;-73
2023/12/06 04:29:30;;;;;;;13.32;8.05;;;;;;;20.02;27.70;101092.75;2090586;28;20037;-73
2023/12/06 04:30:32;;;;;;;16.92;9.15;;;;;;;20.01;27.63;101090.34;2091084;28;20045;-75
2023/12/06 04:31:35;;;;;;;12.32;7.75;;;;;;;19.97;27.70;101095.66;2099637;28;20031;-74
2023/12/06 04:32:36;;;;;;;13.13;7.10;;;;;;;19.94;27.60;101093.59;2091018;28;20034;-75
2023/12/06 04:33:40;;;;;;;12.73;7.35;;;;;;;19.94;27.72;101096.31;2090834;28;21197;-74
2023/12/06 04:34:53;;;;;;;13.60;7.75;;;;;;;19.93;27.83;101094.75;2099196;28;21055;-75
2023/12/06 04:35:55;;;;;;;12.88;7.85;;;;;;;19.90;27.81;101096.19;2107382;28;20029;-75
2023/12/06 04:36:57;;;;;;;13.50;8.70;;;;;;;19.89;27.79;101097.31;2107715;28;20029;-74
2023/12/06 04:37:58;;;;;;;13.45;8.13;;;;;;;19.87;27.73;101096.06;2098708;28;20862;-75
2023/12/06 04:39:01;;;;;;;15.55;8.30;;;;;;;19.85;27.74;101109.22;2099360;28;20021;-72
2023/12/06 04:40:07;;;;;;;12.20;8.07;;;;;;;19.84;27.60;101102.16;2106927;28;20037;-72
2023/12/06 04:41:08;;;;;;;13.18;7.53;;;;;;;19.83;27.63;101106.00;2098678;28;20048;-73
2023/12/06 04:42:10;;;;;;;12.57;7.30;;;;;;;19.81;27.56;101108.28;2090518;28;20026;-73
2023/12/06 04:43:11;;;;;;;14.48;7.97;;;;;;;19.78;27.57;101109.72;2099414;28;20032;-74
2023/12/06 04:44:13;;;;;;;13.23;6.97;;;;;;;19.78;27.52;101103.47;2090697;28;20034;-74
2023/12/06 04:45:15;;;;;;;15.43;7.95;;;;;;;19.76;27.72;101114.69;2082490;28;20048;-74
2023/12/06 04:46:16;;;;;;;14.10;8.65;;;;;;;19.72;27.63;101105.56;2099046;28;20076;-73
2023/12/06 04:47:17;;;;;;;12.18;7.75;;;;;;;19.73;27.61;101106.38;2099174;28;20056;-71
2023/12/06 04:48:21;;;;;;;13.25;8.45;;;;;;;19.71;27.53;101112.16;2082519;28;20061;-72